createdAt,value
2019-03-27T00:02:31.458Z,0.34
2019-03-27T00:05:04.432Z,0.28
2019-03-27T00:07:37.075Z,0.27
2019-03-27T00:10:11.298Z,0.24
2019-03-27T00:12:43.854Z,0.19
2019-03-27T00:15:18.337Z,0.13
2019-03-27T00:17:51.157Z,0.12
2019-03-27T00:20:24.083Z,0.10
2019-03-27T00:22:56.666Z,0.12
2019-03-27T00:25:29.351Z,0.12
2019-03-27T00:28:02.004Z,0.07
2019-03-27T00:30:34.818Z,0.07
2019-03-27T00:33:07.762Z,0.07
2019-03-27T00:35:40.567Z,0.03
2019-03-27T00:38:13.193Z,-0.06
2019-03-27T00:40:45.850Z,-0.07
2019-03-27T00:43:18.477Z,-0.10
2019-03-27T00:45:51.289Z,-0.07
2019-03-27T00:48:25.354Z,-0.05
2019-03-27T00:50:58.188Z,-0.13
2019-03-27T00:53:30.812Z,-0.18
2019-03-27T00:56:03.629Z,-0.25
2019-03-27T00:58:36.239Z,-0.22
2019-03-27T01:01:15.115Z,-0.15
2019-03-27T01:03:47.961Z,-0.14
2019-03-27T01:06:20.832Z,-0.15
2019-03-27T01:08:53.631Z,-0.17
2019-03-27T01:11:26.356Z,-0.19
2019-03-27T01:13:58.946Z,-0.20
2019-03-27T01:16:31.742Z,-0.23
2019-03-27T01:19:04.706Z,-0.23
2019-03-27T01:21:37.584Z,-0.27
2019-03-27T01:24:10.216Z,-0.23
2019-03-27T01:26:42.869Z,-0.23
2019-03-27T01:29:15.426Z,-0.25
2019-03-27T01:31:48.258Z,-0.24
2019-03-27T01:34:21.162Z,-0.25
2019-03-27T01:36:54.014Z,-0.25
2019-03-27T01:39:26.613Z,-0.30
2019-03-27T01:41:59.473Z,-0.26
2019-03-27T01:44:32.044Z,-0.28
2019-03-27T01:47:04.838Z,-0.34
2019-03-27T01:49:37.764Z,-0.34
2019-03-27T01:52:11.020Z,-0.42
2019-03-27T01:54:43.584Z,-0.42
2019-03-27T01:57:16.279Z,-0.41
2019-03-27T01:59:48.872Z,-0.47
2019-03-27T02:02:21.522Z,-0.43
2019-03-27T02:04:54.373Z,-0.42
2019-03-27T02:07:27.331Z,-0.45
2019-03-27T02:09:59.922Z,-0.52
2019-03-27T02:12:32.633Z,-0.51
2019-03-27T02:15:05.487Z,-0.54
2019-03-27T02:17:38.538Z,-0.54
2019-03-27T02:20:11.811Z,-0.62
2019-03-27T02:22:44.618Z,-0.63
2019-03-27T02:25:17.231Z,-0.59
2019-03-27T02:27:49.911Z,-0.59
2019-03-27T02:30:22.524Z,-0.65
2019-03-27T02:32:55.465Z,-0.73
2019-03-27T02:35:28.585Z,-0.68
2019-03-27T02:38:01.428Z,-0.70
2019-03-27T02:40:34.174Z,-0.65
2019-03-27T02:43:06.898Z,-0.63
2019-03-27T02:45:39.457Z,-0.62
2019-03-27T02:48:14.152Z,-0.67
2019-03-27T02:50:46.805Z,-0.71
2019-03-27T02:53:19.498Z,-0.76
2019-03-27T02:55:52.058Z,-0.84
2019-03-27T02:58:24.766Z,-0.80
2019-03-27T03:00:57.334Z,-0.89
2019-03-27T03:03:30.450Z,-0.89
2019-03-27T03:06:03.275Z,-0.83
2019-03-27T03:08:36.055Z,-0.80
2019-03-27T03:11:08.681Z,-0.93
2019-03-27T03:13:41.633Z,-0.87
2019-03-27T03:16:14.233Z,-0.89
2019-03-27T03:18:47.992Z,-0.86
2019-03-27T03:21:20.825Z,-0.93
2019-03-27T03:23:55.033Z,-0.89
2019-03-27T03:26:27.745Z,-0.98
2019-03-27T03:29:00.868Z,-0.97
2019-03-27T03:31:33.463Z,-0.99
2019-03-27T03:34:06.481Z,-1.01
2019-03-27T03:36:39.390Z,-0.99
2019-03-27T03:39:12.011Z,-1.04
2019-03-27T03:41:44.653Z,-1.08
2019-03-27T03:44:17.458Z,-1.09
2019-03-27T03:46:59.536Z,-1.08
2019-03-27T03:49:24.663Z,-1.05
2019-03-27T03:51:58.228Z,-1.12
2019-03-27T03:54:31.163Z,-1.12
2019-03-27T03:57:05.852Z,-1.15
2019-03-27T03:59:40.527Z,-1.14
2019-03-27T04:02:16.117Z,-1.12
2019-03-27T04:04:50.681Z,-1.19
2019-03-27T04:07:23.512Z,-1.18
2019-03-27T04:09:56.252Z,-1.15
2019-03-27T04:12:28.826Z,-1.12
2019-03-27T04:15:01.472Z,-1.12
2019-03-27T04:17:34.153Z,-1.12
2019-03-27T04:20:07.795Z,-1.13
2019-03-27T04:22:40.634Z,-1.07
2019-03-27T04:25:13.634Z,-1.08
2019-03-27T04:27:47.629Z,-1.11
2019-03-27T04:30:20.348Z,-1.07
2019-03-27T04:32:52.972Z,-1.02
2019-03-27T04:35:25.612Z,-1.10
2019-03-27T04:37:58.746Z,-1.04
2019-03-27T04:40:31.433Z,-1.02
2019-03-27T04:43:04.084Z,-1.01
2019-03-27T04:45:49.205Z,-1.03
2019-03-27T04:48:21.803Z,-1.03
2019-03-27T04:50:54.464Z,-0.97
2019-03-27T04:53:27.063Z,-1.00
2019-03-27T04:56:01.189Z,-0.97
2019-03-27T04:58:33.817Z,-0.91
2019-03-27T05:01:06.756Z,-0.95
2019-03-27T05:03:40.551Z,-0.95
2019-03-27T05:06:13.184Z,-0.90
2019-03-27T05:08:46.025Z,-0.92
2019-03-27T05:11:18.766Z,-0.96
2019-03-27T05:13:51.346Z,-0.92
2019-03-27T05:16:23.999Z,-0.83
2019-03-27T05:18:56.557Z,-0.85
2019-03-27T05:21:29.183Z,-0.89
2019-03-27T05:24:01.755Z,-0.79
2019-03-27T05:26:34.697Z,-0.73
2019-03-27T05:29:07.282Z,-0.66
2019-03-27T05:31:40.153Z,-0.60
2019-03-27T05:34:13.741Z,-0.52
2019-03-27T05:36:46.637Z,-0.43
2019-03-27T05:39:19.695Z,-0.46
2019-03-27T05:41:52.715Z,-0.40
2019-03-27T05:44:25.315Z,-0.37
2019-03-27T05:46:58.086Z,-0.22
2019-03-27T05:49:30.677Z,-0.10
2019-03-27T05:52:03.484Z,-0.02
2019-03-27T05:54:36.127Z,0.07
2019-03-27T05:57:08.753Z,0.22
2019-03-27T05:59:41.400Z,0.16
2019-03-27T06:02:14.123Z,0.36
2019-03-27T06:04:46.789Z,0.43
2019-03-27T06:07:19.359Z,0.50
2019-03-27T06:09:52.015Z,0.58
2019-03-27T06:12:24.631Z,0.66
2019-03-27T06:14:57.240Z,0.71
2019-03-27T06:17:29.898Z,0.81
2019-03-27T06:20:02.519Z,0.95
2019-03-27T06:22:35.410Z,1.03
2019-03-27T06:25:08.202Z,1.13
2019-03-27T06:27:40.934Z,1.27
2019-03-27T06:30:16.035Z,1.33
2019-03-27T06:32:48.648Z,1.56
2019-03-27T06:35:21.812Z,1.72
2019-03-27T06:37:54.566Z,1.81
2019-03-27T06:40:28.498Z,1.98
2019-03-27T06:43:01.547Z,2.05
2019-03-27T06:45:34.134Z,2.32
2019-03-27T06:48:07.115Z,2.46
2019-03-27T06:50:39.712Z,2.55
2019-03-27T06:53:12.684Z,2.62
2019-03-27T06:55:45.394Z,2.73
2019-03-27T06:58:18.088Z,2.93
2019-03-27T07:00:50.693Z,2.99
2019-03-27T07:03:23.344Z,3.16
2019-03-27T07:05:55.919Z,3.22
2019-03-27T07:08:28.944Z,3.20
2019-03-27T07:11:01.738Z,3.25
2019-03-27T07:13:34.542Z,3.24
2019-03-27T07:16:07.238Z,3.22
2019-03-27T07:18:40.712Z,3.39
2019-03-27T07:21:13.579Z,3.47
2019-03-27T07:23:46.602Z,3.55
2019-03-27T07:26:19.610Z,3.74
2019-03-27T07:28:52.252Z,3.83
2019-03-27T07:31:24.873Z,3.95
2019-03-27T07:33:57.711Z,4.07
2019-03-27T07:36:30.362Z,4.29
2019-03-27T07:39:11.056Z,4.45
2019-03-27T07:41:37.612Z,4.62
2019-03-27T07:44:10.498Z,4.74
2019-03-27T07:46:43.070Z,4.85
2019-03-27T07:49:15.951Z,4.85
2019-03-27T07:51:48.624Z,4.94
2019-03-27T07:54:21.437Z,4.97
2019-03-27T07:56:54.265Z,5.14
2019-03-27T07:59:27.043Z,5.32
2019-03-27T08:02:00.068Z,5.21
2019-03-27T08:04:32.651Z,5.10
2019-03-27T08:07:05.276Z,5.32
2019-03-27T08:09:38.020Z,5.50
2019-03-27T08:12:10.940Z,5.63
2019-03-27T08:14:43.898Z,5.88
2019-03-27T08:17:16.596Z,6.06
2019-03-27T08:19:49.662Z,6.14
2019-03-27T08:22:23.394Z,6.39
2019-03-27T08:24:56.240Z,6.40
2019-03-27T08:27:29.058Z,6.20
2019-03-27T08:30:01.793Z,6.04
2019-03-27T08:32:37.427Z,6.26
2019-03-27T08:35:10.038Z,6.20
2019-03-27T08:37:42.939Z,6.43
2019-03-27T08:40:16.621Z,6.47
2019-03-27T08:42:49.583Z,6.45
2019-03-27T08:45:22.399Z,6.67
2019-03-27T08:47:55.016Z,6.67
2019-03-27T08:50:27.765Z,6.89
2019-03-27T08:53:00.485Z,6.54
2019-03-27T08:55:33.133Z,6.65
2019-03-27T08:58:06.272Z,6.85
2019-03-27T09:00:57.263Z,6.85
2019-03-27T09:03:29.824Z,6.96
2019-03-27T09:06:02.883Z,7.11
2019-03-27T09:08:35.489Z,6.94
2019-03-27T09:11:08.349Z,7.11
2019-03-27T09:13:41.224Z,7.18
2019-03-27T09:16:14.131Z,7.20
2019-03-27T09:18:46.698Z,6.98
2019-03-27T09:21:19.497Z,7.01
2019-03-27T09:23:52.119Z,7.10
2019-03-27T09:26:25.055Z,7.16
2019-03-27T09:28:58.692Z,7.22
2019-03-27T09:31:43.969Z,7.27
2019-03-27T09:34:05.580Z,6.93
2019-03-27T09:36:38.435Z,7.48
2019-03-27T09:39:12.583Z,7.40
2019-03-27T09:41:45.440Z,7.37
2019-03-27T09:44:18.511Z,7.26
2019-03-27T09:46:51.255Z,7.16
2019-03-27T09:49:23.893Z,7.21
2019-03-27T09:51:57.698Z,7.39
2019-03-27T09:54:30.309Z,7.21
2019-03-27T09:57:03.756Z,7.44
2019-03-27T09:59:36.362Z,7.60
2019-03-27T10:02:09.212Z,7.37
2019-03-27T10:04:41.827Z,7.55
2019-03-27T10:07:14.701Z,7.64
2019-03-27T10:09:50.204Z,7.70
2019-03-27T10:12:21.664Z,7.75
2019-03-27T10:14:54.607Z,8.10
2019-03-27T10:17:27.351Z,8.21
2019-03-27T10:20:03.523Z,8.27
2019-03-27T10:22:34.565Z,8.06
2019-03-27T10:25:08.563Z,8.49
2019-03-27T10:27:41.253Z,8.43
2019-03-27T10:30:14.525Z,8.23
2019-03-27T10:32:47.168Z,8.81
2019-03-27T10:35:22.516Z,9.06
2019-03-27T10:37:55.469Z,9.15
2019-03-27T10:40:28.042Z,9.27
2019-03-27T10:43:00.819Z,8.89
2019-03-27T10:45:33.651Z,8.88
2019-03-27T10:48:06.491Z,9.39
2019-03-27T10:50:39.113Z,9.24
2019-03-27T10:53:14.516Z,8.94
2019-03-27T10:55:48.493Z,9.23
2019-03-27T10:58:21.329Z,8.86
2019-03-27T11:00:54.264Z,8.95
2019-03-27T11:03:27.283Z,8.96
2019-03-27T11:05:59.959Z,9.07
2019-03-27T11:08:32.652Z,9.58
2019-03-27T11:11:05.286Z,9.96
2019-03-27T11:13:38.319Z,10.19
2019-03-27T11:16:11.148Z,10.35
2019-03-27T11:18:44.090Z,10.46
2019-03-27T11:21:16.690Z,10.75
2019-03-27T11:23:49.572Z,10.84
2019-03-27T11:26:22.124Z,10.82
2019-03-27T11:28:55.117Z,10.37
2019-03-27T11:31:27.700Z,10.18
2019-03-27T11:34:00.396Z,10.81
2019-03-27T11:36:35.213Z,11.21
2019-03-27T11:39:12.393Z,11.59
2019-03-27T11:41:44.973Z,11.61
2019-03-27T11:44:17.676Z,11.18
2019-03-27T11:46:50.359Z,11.89
2019-03-27T11:49:23.028Z,11.47
2019-03-27T11:51:55.587Z,10.98
2019-03-27T11:54:28.577Z,10.94
2019-03-27T11:57:01.225Z,11.43
2019-03-27T11:59:33.854Z,11.61
2019-03-27T12:02:09.623Z,11.53
2019-03-27T12:04:42.470Z,11.54
2019-03-27T12:07:16.137Z,12.05
2019-03-27T12:09:48.833Z,11.88
2019-03-27T12:12:21.432Z,11.67
2019-03-27T12:14:54.173Z,11.47
2019-03-27T12:17:26.770Z,11.36
2019-03-27T12:19:59.674Z,11.18
2019-03-27T12:22:32.431Z,11.13
2019-03-27T12:25:06.966Z,11.28
2019-03-27T12:27:42.284Z,11.53
2019-03-27T12:30:15.103Z,11.83
2019-03-27T12:32:49.178Z,11.62
2019-03-27T12:35:22.013Z,11.57
2019-03-27T12:37:54.863Z,11.84
2019-03-27T12:43:06.515Z,16.29
2019-03-27T12:45:39.137Z,16.73
2019-03-27T12:48:14.288Z,15.69
2019-03-27T12:50:46.671Z,15.17
2019-03-27T12:53:19.488Z,16.65
2019-03-27T12:55:52.158Z,19.65
2019-03-27T12:58:24.890Z,22.31
2019-03-27T13:00:57.552Z,23.45
2019-03-27T13:03:30.509Z,24.48
2019-03-27T13:06:03.157Z,25.67
2019-03-27T13:08:39.121Z,26.58
2019-03-27T13:11:11.785Z,25.97
2019-03-27T13:13:44.486Z,28.03
2019-03-27T13:16:17.124Z,28.29
2019-03-27T13:18:49.946Z,28.42
2019-03-27T13:21:26.584Z,29.37
2019-03-27T13:23:56.907Z,29.94
2019-03-27T13:26:29.577Z,30.72
2019-03-27T13:29:02.266Z,32.01
2019-03-27T13:31:34.878Z,30.07
2019-03-27T13:34:08.082Z,31.42
2019-03-27T13:36:45.827Z,32.11
2019-03-27T13:39:18.598Z,32.95
2019-03-27T13:41:51.232Z,33.85
2019-03-27T13:44:36.382Z,33.73
2019-03-27T13:46:58.450Z,32.86
2019-03-27T13:49:31.654Z,33.80
2019-03-27T13:52:04.262Z,34.47
2019-03-27T13:54:37.131Z,34.34
2019-03-27T13:57:09.728Z,33.12
2019-03-27T13:59:42.438Z,34.13
2019-03-27T14:02:15.125Z,34.93
2019-03-27T14:04:47.993Z,35.22
2019-03-27T14:07:20.601Z,34.29
2019-03-27T14:09:53.164Z,35.51
2019-03-27T14:12:25.835Z,34.36
2019-03-27T14:14:59.747Z,33.72
2019-03-27T14:17:32.354Z,33.26
2019-03-27T14:20:06.087Z,34.72
2019-03-27T14:22:39.686Z,35.56
2019-03-27T14:25:14.210Z,34.13
2019-03-27T14:27:46.814Z,34.58
2019-03-27T14:30:51.458Z,33.91
2019-03-27T14:33:24.494Z,33.36
2019-03-27T14:36:03.130Z,34.46
2019-03-27T14:38:35.728Z,36.37
2019-03-27T14:41:08.682Z,36.32
2019-03-27T14:43:41.279Z,33.84
2019-03-27T14:46:14.154Z,30.78
2019-03-27T14:48:46.757Z,31.90
2019-03-27T14:51:19.928Z,32.93
2019-03-27T14:53:52.561Z,33.18
2019-03-27T14:56:25.299Z,33.88
2019-03-27T14:58:57.896Z,34.79
2019-03-27T15:01:30.963Z,34.32
2019-03-27T15:04:03.596Z,33.57
2019-03-27T15:06:36.277Z,32.77
2019-03-27T15:09:10.398Z,32.79
2019-03-27T15:11:43.208Z,32.23
2019-03-27T15:14:15.797Z,31.55
2019-03-27T15:16:48.572Z,29.46
2019-03-27T15:19:21.485Z,29.25
2019-03-27T15:21:54.968Z,27.52
2019-03-27T15:24:27.680Z,25.11
2019-03-27T15:27:00.542Z,23.81
2019-03-27T15:29:33.106Z,22.28
2019-03-27T15:32:06.295Z,19.78
2019-03-27T15:34:38.938Z,22.60
2019-03-27T15:37:11.972Z,23.36
2019-03-27T15:39:44.537Z,19.91
2019-03-27T15:42:17.432Z,16.67
2019-03-27T15:44:50.090Z,15.28
2019-03-27T15:47:23.008Z,13.39
2019-03-27T15:49:55.660Z,12.63
2019-03-27T15:52:36.510Z,12.06
2019-03-27T15:55:03.195Z,11.80
2019-03-27T15:57:36.083Z,11.71
2019-03-27T16:00:09.748Z,11.29
2019-03-27T16:02:43.115Z,11.13
2019-03-27T16:05:15.809Z,11.08
2019-03-27T16:07:48.735Z,10.84
2019-03-27T16:10:21.297Z,10.55
2019-03-27T16:12:54.343Z,10.47
2019-03-27T16:15:26.930Z,10.10
2019-03-27T16:17:59.872Z,9.97
2019-03-27T16:20:32.533Z,9.86
2019-03-27T16:23:05.751Z,9.81
2019-03-27T16:25:38.555Z,9.72
2019-03-27T16:28:11.735Z,9.45
2019-03-27T16:30:44.402Z,9.34
2019-03-27T16:33:17.018Z,9.48
2019-03-27T16:35:49.635Z,9.44
2019-03-27T16:38:22.693Z,9.35
2019-03-27T16:40:55.299Z,9.44
2019-03-27T16:43:27.973Z,9.28
2019-03-27T16:46:00.593Z,9.18
2019-03-27T16:48:35.551Z,9.12
2019-03-27T16:51:08.177Z,9.12
2019-03-27T16:53:41.183Z,9.13
2019-03-27T16:56:14.265Z,8.99
2019-03-27T16:58:46.883Z,8.91
2019-03-27T17:01:19.478Z,8.95
2019-03-27T17:03:52.429Z,8.94
2019-03-27T17:06:25.063Z,8.85
2019-03-27T17:08:57.881Z,8.89
2019-03-27T17:11:31.891Z,8.92
2019-03-27T17:14:04.547Z,8.97
2019-03-27T17:16:37.154Z,8.92
2019-03-27T17:19:09.852Z,8.92
2019-03-27T17:21:42.473Z,8.93
2019-03-27T17:24:17.533Z,8.85
2019-03-27T17:26:50.282Z,8.83
2019-03-27T17:29:25.930Z,8.82
2019-03-27T17:31:58.530Z,8.76
2019-03-27T17:34:32.746Z,8.68
2019-03-27T17:37:05.384Z,8.68
2019-03-27T17:39:38.356Z,8.74
2019-03-27T17:42:11.098Z,8.72
2019-03-27T17:44:44.020Z,8.75
2019-03-27T17:47:16.639Z,8.76
2019-03-27T17:49:49.479Z,8.77
2019-03-27T17:52:23.258Z,8.75
2019-03-27T17:54:56.260Z,8.71
2019-03-27T17:57:28.996Z,8.70
2019-03-27T18:00:01.660Z,8.61
2019-03-27T18:02:35.916Z,8.58
2019-03-27T18:05:08.959Z,8.54
2019-03-27T18:07:41.631Z,8.49
2019-03-27T18:10:22.789Z,8.43
2019-03-27T18:12:55.415Z,8.38
2019-03-27T18:15:28.263Z,8.28
2019-03-27T18:18:01.024Z,8.16
2019-03-27T18:20:33.928Z,8.14
2019-03-27T18:23:08.698Z,8.16
2019-03-27T18:25:44.123Z,8.12
2019-03-27T18:28:17.010Z,8.11
2019-03-27T18:30:49.975Z,8.03
2019-03-27T18:33:22.670Z,8.00
2019-03-27T18:35:58.010Z,7.96
2019-03-27T18:38:30.791Z,7.95
2019-03-27T18:41:03.766Z,7.93
2019-03-27T18:43:36.513Z,7.91
2019-03-27T18:46:09.436Z,7.90
2019-03-27T18:48:42.073Z,7.83
2019-03-27T18:51:15.023Z,7.76
2019-03-27T18:53:59.072Z,7.72
2019-03-27T18:56:31.116Z,7.71
2019-03-27T18:59:03.876Z,7.71
2019-03-27T19:01:36.908Z,7.65
2019-03-27T19:04:09.578Z,7.61
2019-03-27T19:06:42.557Z,7.66
2019-03-27T19:09:15.259Z,7.71
2019-03-27T19:11:48.079Z,7.71
2019-03-27T19:14:22.010Z,7.76
2019-03-27T19:16:54.928Z,7.68
2019-03-27T19:19:27.602Z,7.74
2019-03-27T19:22:01.064Z,7.73
2019-03-27T19:24:34.195Z,7.76
2019-03-27T19:27:07.346Z,7.77
2019-03-27T19:29:44.957Z,7.75
2019-03-27T19:32:18.503Z,7.80
2019-03-27T19:34:51.299Z,7.72
2019-03-27T19:37:24.455Z,7.76
2019-03-27T19:40:01.147Z,7.77
2019-03-27T19:42:34.319Z,7.68
2019-03-27T19:45:07.821Z,7.60
2019-03-27T19:47:40.904Z,7.57
2019-03-27T19:50:13.752Z,7.60
2019-03-27T19:52:46.804Z,7.67
2019-03-27T19:55:19.526Z,7.72
2019-03-27T19:57:52.292Z,7.53
2019-03-27T20:00:26.043Z,7.57
2019-03-27T20:02:59.062Z,7.59
2019-03-27T20:05:31.706Z,7.58
2019-03-27T20:08:04.728Z,7.53
2019-03-27T20:10:37.549Z,7.56
2019-03-27T20:13:10.767Z,7.51
2019-03-27T20:15:43.858Z,7.56
2019-03-27T20:18:21.855Z,7.56
2019-03-27T20:20:54.840Z,7.67
2019-03-27T20:23:27.544Z,7.65
2019-03-27T20:26:00.212Z,7.72
2019-03-27T20:28:33.435Z,7.60
2019-03-27T20:31:06.106Z,7.63
2019-03-27T20:33:39.098Z,7.60
2019-03-27T20:36:13.146Z,7.63
2019-03-27T20:38:46.492Z,7.67
2019-03-27T20:41:19.320Z,7.62
2019-03-27T20:43:52.690Z,7.55
2019-03-27T20:46:29.008Z,7.63
2019-03-27T20:48:59.819Z,7.56
2019-03-27T20:51:33.594Z,7.47
2019-03-27T20:54:06.506Z,7.47
2019-03-27T20:56:41.431Z,7.47
2019-03-27T20:59:18.242Z,7.41
2019-03-27T21:01:50.060Z,7.44
2019-03-27T21:04:22.854Z,7.36
2019-03-27T21:06:55.603Z,7.39
2019-03-27T21:09:28.597Z,7.41
2019-03-27T21:12:01.653Z,7.34
2019-03-27T21:14:34.938Z,7.41
2019-03-27T21:17:10.310Z,7.49
2019-03-27T21:19:43.344Z,7.53
2019-03-27T21:22:16.070Z,7.54
2019-03-27T21:24:48.989Z,7.36
2019-03-27T21:27:21.679Z,7.35
2019-03-27T21:29:54.964Z,7.41
2019-03-27T21:32:27.923Z,7.42
2019-03-27T21:35:00.829Z,7.39
2019-03-27T21:37:33.566Z,7.41
2019-03-27T21:40:08.011Z,7.46
2019-03-27T21:42:43.127Z,7.42
2019-03-27T21:45:15.974Z,7.38
2019-03-27T21:47:48.608Z,7.40
2019-03-27T21:50:22.562Z,7.47
2019-03-27T21:53:00.774Z,7.56
2019-03-27T21:55:41.920Z,7.33
2019-03-27T21:58:04.172Z,7.41
2019-03-27T22:00:41.779Z,7.35
2019-03-27T22:03:14.509Z,7.48
2019-03-27T22:05:47.381Z,7.42
2019-03-27T22:08:20.110Z,7.37
2019-03-27T22:10:52.805Z,7.26
2019-03-27T22:13:25.475Z,7.36
2019-03-27T22:16:03.675Z,7.41
2019-03-27T22:18:36.282Z,7.49
2019-03-27T22:21:09.264Z,7.36
2019-03-27T22:23:43.889Z,7.43
2019-03-27T22:26:16.610Z,7.42
2019-03-27T22:28:49.238Z,7.35
2019-03-27T22:31:22.244Z,7.36
2019-03-27T22:33:54.849Z,7.45
2019-03-27T22:36:27.519Z,7.44
2019-03-27T22:39:00.129Z,7.42
2019-03-27T22:41:34.994Z,7.33
2019-03-27T22:44:07.715Z,7.31
2019-03-27T22:46:41.202Z,7.39
2019-03-27T22:49:13.919Z,7.35
2019-03-27T22:51:46.838Z,7.34
2019-03-27T22:54:19.451Z,7.27
2019-03-27T22:56:52.343Z,7.31
2019-03-27T22:59:25.089Z,7.34
2019-03-27T23:01:58.391Z,7.37
2019-03-27T23:04:31.262Z,7.30
2019-03-27T23:07:04.076Z,7.24
2019-03-27T23:09:36.792Z,7.13
2019-03-27T23:12:09.722Z,7.21
2019-03-27T23:14:42.391Z,7.26
2019-03-27T23:17:15.499Z,7.20
2019-03-27T23:19:51.410Z,7.17
2019-03-27T23:22:25.972Z,7.19
2019-03-27T23:24:58.568Z,7.21
2019-03-27T23:27:31.649Z,7.08
2019-03-27T23:30:05.385Z,7.08
2019-03-27T23:32:38.721Z,7.08
2019-03-27T23:35:11.859Z,7.11
2019-03-27T23:37:47.033Z,7.09
2019-03-27T23:40:19.714Z,7.16
2019-03-27T23:42:52.425Z,7.09
2019-03-27T23:45:25.142Z,7.17
2019-03-27T23:47:58.404Z,7.08
2019-03-27T23:50:31.099Z,7.11
2019-03-27T23:53:04.938Z,7.14
2019-03-27T23:55:38.517Z,7.10
2019-03-27T23:58:11.291Z,7.13
